Flight Track Log - Related Links

Times and Time Zones

All times are in EDT time to prevent confusion due to time zone crossing. See the N56LW flight status page for this flight to view local times or setup timezone preferences in your user account.


Time Position Orientation Groundspeed Altitude Reporting Facility
EDT Latitude Longitude Course Direction KTS MPH feet Rate Location/Type
Thu 07:41:57 PM 28.8667 -81.8667 303° West 223 257 3,000  Level Orlando TRACON
Thu 07:42:37 PM 28.8956 -81.9178 303° West 248 285 3,100 337 Climbing Jacksonville Center
Thu 07:43:26 PM 28.9375 -81.9650 315° West 265 305 3,500 1,852 Climbing Jacksonville Center
Thu 07:45:06 PM 29.0236 -82.0519 319° Northwest 277 319 7,700 2,325 Climbing Jacksonville Center
Thu 07:46:06 PM 29.0658 -82.1275 303° West 277 319 9,700 1,200 Climbing Jacksonville Center
Thu 07:47:06 PM 29.1081 -82.2008 303° West 282 325 10,100 1,300 Climbing Jacksonville Center
Thu 07:48:06 PM 29.1564 -82.2814 305° West 294 338 12,300 2,200 Climbing Jacksonville Center
Thu 07:49:06 PM 29.1903 -82.3644 295° West 294 338 14,500 2,000 Climbing Jacksonville Center
Thu 07:50:06 PM 29.2303 -82.4522 298° West 294 338 16,300 1,900 Climbing Jacksonville Center
Thu 07:51:06 PM 29.2639 -82.5403 294° West 300 345 18,300 1,950 Climbing Jacksonville Center
Thu 07:52:06 PM 29.3017 -82.6258 297° West 300 345 20,200 1,700 Climbing Jacksonville Center
Thu 07:53:06 PM 29.3375 -82.7139 295° West 300 345 21,700 1,600 Climbing Jacksonville Center
Thu 07:54:06 PM 29.3750 -82.8019 296° West 300 345 23,400 1,700 Climbing Jacksonville Center
Thu 07:55:06 PM 29.4106 -82.8903 295° West 300 345 25,100 1,150 Climbing Jacksonville Center
Thu 07:56:06 PM 29.4461 -82.9783 295° West 300 345 25,700 450 Climbing Jacksonville Center
Thu 07:57:06 PM 29.4897 -83.0811 296° West 314 361 26,000 150 Climbing Jacksonville Center
Thu 07:58:06 PM 29.5292 -83.1767 295° West 337 388 26,000  Level Jacksonville Center
Thu 07:59:06 PM 29.5667 -83.2697 295° West 346 398 26,000  Level Jacksonville Center
Thu 08:00:06 PM 29.6122 -83.3800 295° West 346 398 26,000  Level Jacksonville Center
Thu 08:01:06 PM 29.6533 -83.4806 295° West 346 398 26,000  Level Jacksonville Center
Thu 08:02:06 PM 29.6947 -83.5836 295° West 346 398 26,000  Level Jacksonville Center
Thu 08:03:06 PM 29.7381 -83.6867 296° West 346 398 26,000  Level Jacksonville Center
Thu 08:04:06 PM 29.7811 -83.7875 296° West 346 398 26,000  Level Jacksonville Center
Thu 08:05:06 PM 29.8283 -83.8861 299° West 351 404 26,000  Level Jacksonville Center
Thu 08:06:06 PM 29.8756 -83.9897 298° West 351 404 26,000  Level Jacksonville Center
Thu 08:07:06 PM 29.9206 -84.0883 298° West 351 404 26,000  Level Jacksonville Center
Thu 08:08:06 PM 29.9614 -84.1800 297° West 351 404 26,000  Level Jacksonville Center
Thu 08:09:06 PM 30.0064 -84.2814 297° West 351 404 26,000  Level Jacksonville Center
Thu 08:10:06 PM 30.0806 -84.3544 320° Northwest 350 403 26,000  Level Jacksonville Center
Thu 08:11:06 PM 30.1911 -84.3681 354° North 343 395 26,000 -50 Level Jacksonville Center
Thu 08:12:06 PM 30.2717 -84.4392 323° Northwest 356 410 25,900  Descending Jacksonville Center
Thu 08:13:06 PM 30.3375 -84.5269 311° West 356 410 26,000 50 Climbing Jacksonville Center
Thu 08:14:06 PM 30.4053 -84.6172 311° West 361 415 26,000  Level Jacksonville Center
Thu 08:15:06 PM 30.4708 -84.7050 311° West 366 421 26,000  Level Jacksonville Center
Thu 08:16:06 PM 30.5406 -84.7956 312° West 366 421 26,000 -50 Level Jacksonville Center
Thu 08:17:06 PM 30.6081 -84.8861 311° West 366 421 25,900  Descending Jacksonville Center
Thu 08:18:06 PM 30.6714 -84.9722 311° West 366 421 26,000 50 Climbing Jacksonville Center
Thu 08:19:06 PM 30.7386 -85.0631 311° West 366 421 26,000  Level Jacksonville Center
Thu 08:20:06 PM 30.7872 -85.1536 302° West 352 405 26,000  Level Jacksonville Center
Thu 08:21:06 PM 30.7917 -85.2600 273° West 323 372 26,000  Level Jacksonville Center
Thu 08:22:06 PM 30.7917 -85.3642 270° West 323 372 26,000  Level Jacksonville Center
Thu 08:23:06 PM 30.7958 -85.4681 273° West 323 372 26,000  Level Jacksonville Center
Thu 08:24:06 PM 30.7978 -85.5697 271° West 323 372 26,000 -150 Level Jacksonville Center
Thu 08:25:06 PM 30.8019 -85.6739 273° West 323 372 25,700 -850 Descending Jacksonville Center
Thu 08:26:06 PM 30.8036 -85.7875 271° West 328 377 24,300 -1,350 Descending Jacksonville Center
Thu 08:27:06 PM 30.8053 -85.8917 271° West 328 377 23,000 -1,300 Descending Jacksonville Center
Thu 08:28:06 PM 30.8092 -85.9886 273° West 322 371 21,700 -1,450 Descending Jacksonville Center
Thu 08:29:06 PM 30.8131 -86.0903 273° West 322 371 20,100 -1,600 Descending Jacksonville Center
Thu 08:30:06 PM 30.8125 -86.1894 270° West 312 359 18,500 -1,600 Descending Jacksonville Center
Thu 08:31:06 PM 30.8164 -86.2861 273° West 307 353 16,900 -1,650 Descending Jacksonville Center
Thu 08:32:06 PM 30.8200 -86.3831 273° West 307 353 15,200 -2,450 Descending Jacksonville Center
Thu 08:33:06 PM 30.8217 -86.4728 271° West 302 348 12,000 -3,400 Descending Jacksonville Center
Thu 08:34:06 PM 30.8006 -86.5492 252° West 257 296 8,400 -2,800 Descending Jacksonville Center
Thu 08:35:06 PM 30.7336 -86.5586 187° South 215 247 6,400 -2,000 Descending Jacksonville Center
Thu 08:37:00 PM 30.5739 -86.5168 168° South  Level Estimated
Thu 08:44:00 PM 30.4000 -86.4667 157° South  Level FlightAware Approximate

Login

Don't have an account? Register now (free) for customized features, flight alerts, and more!